Nogales International Airport
KOLS : now visible

Airfield :











YOU CAN JOIN US ON...

 
LOGIN :

Register | Disclaimer

   EN    FR    IT 

 









Legend :    VFR   Marginal VFR   IFR   Intensive IFR   Very Intensive IFR
Visi :
Ceiling :
>= 8 km
>= 3000ft
5 to 8 km
1000 to 3000 ft
1500m to 5 km
500 to 1000 ft
800 to 1500m
200 to 500 ft
< 800m
< 200 ft
Symbols :   Thunderstorms  Fog  Heavy snow  Heavy precipitations  Wind > 20 kt







- Airport Elevation : 3955 ft


KOLS - Nogales International

CURRENT METAR :
  • 261454Z AUTO 00000KT 10SM CLR 18/01 A3009 RMK AO2 SLP133 T01830011 51005

EXPIRED METARs :
  • 261354Z AUTO 18003KT 10SM CLR 14/01 A3009 RMK AO2 SLP131 T01440011
  • 261254Z AUTO 07003KT 10SM CLR 12/01 A3008 RMK AO2 SLP128 T01170006

TAF KOLS
Valid from the 26 at 12:00 until the 27 at 12:00 UTC


261120Z 2612/2712 04006KT P6SM SKC
FM261700 20005KT P6SM FEW090
FM262000 23011G19KT P6SM SCT090
FM270200 VRB03KT P6SM SKC
KZAB FIR / North America



MET'MAP, your aeronautical weather chart ! - Copyright ORBIFLY December 2007 - Disclaimer

ORBIFLY MET'MAP TEAM :

Programming & Development : Alexandra Zaïnal
Concept & Development : Baudouin d'Aumeries
Co-Development & Prog : Marc-Olivier Méhu
Technical & hardware support : Manuel Goepfert

Contact : metmap@orbifly.com




SOURCES & CREDITS :

   NOAA       Earth
Advisory